sensor_id;sensor_type;location;lat;lon;timestamp;temperature;humidity
290;DHT22;13193;48.874;9.086;2022-12-07T00:01:26;5.50;1.00
290;DHT22;13193;48.874;9.086;2022-12-07T00:03:54;5.60;1.00
290;DHT22;13193;48.874;9.086;2022-12-07T00:06:22;5.60;1.00
290;DHT22;13193;48.874;9.086;2022-12-07T00:08:48;5.60;1.00
290;DHT22;13193;48.874;9.086;2022-12-07T00:11:19;5.60;1.00
290;DHT22;13193;48.874;9.086;2022-12-07T00:13:45;5.40;1.00
290;DHT22;13193;48.874;9.086;2022-12-07T00:16:16;5.40;1.00
290;DHT22;13193;48.874;9.086;2022-12-07T00:18:42;5.30;1.00
290;DHT22;13193;48.874;9.086;2022-12-07T00:21:14;5.30;1.00
290;DHT22;13193;48.874;9.086;2022-12-07T00:23:41;5.30;1.00
290;DHT22;13193;48.874;9.086;2022-12-07T00:26:21;5.30;1.00
290;DHT22;13193;48.874;9.086;2022-12-07T00:28:52;5.30;1.00
290;DHT22;13193;48.874;9.086;2022-12-07T00:31:20;5.30;1.00
290;DHT22;13193;48.874;9.086;2022-12-07T00:33:47;5.20;1.00
290;DHT22;13193;48.874;9.086;2022-12-07T00:36:15;5.10;1.00
290;DHT22;13193;48.874;9.086;2022-12-07T00:38:41;5.10;1.00
290;DHT22;13193;48.874;9.086;2022-12-07T00:41:11;5.10;1.00
290;DHT22;13193;48.874;9.086;2022-12-07T00:43:37;5.10;1.00
290;DHT22;13193;48.874;9.086;2022-12-07T00:46:03;5.00;1.00
290;DHT22;13193;48.874;9.086;2022-12-07T00:48:29;5.00;1.00
290;DHT22;13193;48.874;9.086;2022-12-07T00:50:55;5.00;1.00
290;DHT22;13193;48.874;9.086;2022-12-07T00:53:21;5.00;1.00
290;DHT22;13193;48.874;9.086;2022-12-07T00:55:46;5.00;1.00
290;DHT22;13193;48.874;9.086;2022-12-07T00:58:12;4.90;1.00
290;DHT22;13193;48.874;9.086;2022-12-07T01:00:39;5.00;1.00
290;DHT22;13193;48.874;9.086;2022-12-07T01:03:06;5.00;1.00
290;DHT22;13193;48.874;9.086;2022-12-07T01:05:32;5.00;1.00
290;DHT22;13193;48.874;9.086;2022-12-07T01:07:57;5.00;1.00
290;DHT22;13193;48.874;9.086;2022-12-07T01:10:23;4.90;1.00
290;DHT22;13193;48.874;9.086;2022-12-07T01:12:49;4.90;1.00
290;DHT22;13193;48.874;9.086;2022-12-07T01:15:15;4.80;1.00
290;DHT22;13193;48.874;9.086;2022-12-07T01:17:40;4.80;1.00
290;DHT22;13193;48.874;9.086;2022-12-07T01:20:06;4.80;1.00
290;DHT22;13193;48.874;9.086;2022-12-07T01:22:37;4.80;1.00
290;DHT22;13193;48.874;9.086;2022-12-07T01:25:03;4.80;1.00
290;DHT22;13193;48.874;9.086;2022-12-07T01:27:28;4.80;1.00
290;DHT22;13193;48.874;9.086;2022-12-07T01:29:54;4.80;1.00
290;DHT22;13193;48.874;9.086;2022-12-07T01:32:20;4.80;1.00
290;DHT22;13193;48.874;9.086;2022-12-07T01:34:47;4.90;1.00
290;DHT22;13193;48.874;9.086;2022-12-07T01:37:13;4.90;1.00
290;DHT22;13193;48.874;9.086;2022-12-07T01:39:39;4.90;1.00
290;DHT22;13193;48.874;9.086;2022-12-07T01:42:04;5.00;1.00
290;DHT22;13193;48.874;9.086;2022-12-07T01:44:30;5.00;1.00
290;DHT22;13193;48.874;9.086;2022-12-07T01:47:02;5.10;1.00
290;DHT22;13193;48.874;9.086;2022-12-07T01:49:35;5.00;1.00
290;DHT22;13193;48.874;9.086;2022-12-07T01:52:24;5.10;1.00
290;DHT22;13193;48.874;9.086;2022-12-07T01:54:53;5.10;1.00
290;DHT22;13193;48.874;9.086;2022-12-07T01:57:20;5.20;1.00
290;DHT22;13193;48.874;9.086;2022-12-07T01:59:48;5.10;1.00
290;DHT22;13193;48.874;9.086;2022-12-07T02:02:27;5.10;1.00
290;DHT22;13193;48.874;9.086;2022-12-07T02:04:56;5.10;1.00
290;DHT22;13193;48.874;9.086;2022-12-07T02:07:23;5.10;1.00
290;DHT22;13193;48.874;9.086;2022-12-07T02:09:49;5.00;1.00
290;DHT22;13193;48.874;9.086;2022-12-07T02:12:14;5.00;1.00
290;DHT22;13193;48.874;9.086;2022-12-07T02:14:40;5.00;1.00
290;DHT22;13193;48.874;9.086;2022-12-07T02:17:31;5.00;1.00
290;DHT22;13193;48.874;9.086;2022-12-07T02:25:54;4.90;1.00
290;DHT22;13193;48.874;9.086;2022-12-07T02:28:33;4.90;1.00
290;DHT22;13193;48.874;9.086;2022-12-07T02:31:06;4.80;1.00
290;DHT22;13193;48.874;9.086;2022-12-07T02:33:40;4.80;1.00
290;DHT22;13193;48.874;9.086;2022-12-07T02:38:50;4.80;1.00
290;DHT22;13193;48.874;9.086;2022-12-07T02:41:25;4.80;1.00
290;DHT22;13193;48.874;9.086;2022-12-07T02:44:01;4.80;1.00
290;DHT22;13193;48.874;9.086;2022-12-07T02:46:31;4.80;1.00
290;DHT22;13193;48.874;9.086;2022-12-07T02:48:58;4.70;1.00
290;DHT22;13193;48.874;9.086;2022-12-07T02:51:30;4.70;1.00
290;DHT22;13193;48.874;9.086;2022-12-07T02:53:55;4.70;1.00
290;DHT22;13193;48.874;9.086;2022-12-07T02:56:44;4.70;1.00
290;DHT22;13193;48.874;9.086;2022-12-07T02:59:22;4.60;1.00
290;DHT22;13193;48.874;9.086;2022-12-07T03:10:14;4.50;1.00
290;DHT22;13193;48.874;9.086;2022-12-07T03:15:26;4.40;1.00
290;DHT22;13193;48.874;9.086;2022-12-07T03:17:56;4.40;1.00
290;DHT22;13193;48.874;9.086;2022-12-07T03:20:24;4.30;1.00
290;DHT22;13193;48.874;9.086;2022-12-07T03:22:51;4.30;1.00
290;DHT22;13193;48.874;9.086;2022-12-07T03:25:18;4.30;1.00
290;DHT22;13193;48.874;9.086;2022-12-07T03:27:58;4.30;1.00
290;DHT22;13193;48.874;9.086;2022-12-07T03:30:44;4.20;1.00
290;DHT22;13193;48.874;9.086;2022-12-07T03:33:18;4.20;1.00
290;DHT22;13193;48.874;9.086;2022-12-07T03:35:57;4.20;1.00
290;DHT22;13193;48.874;9.086;2022-12-07T03:38:30;4.10;1.00
290;DHT22;13193;48.874;9.086;2022-12-07T03:41:44;4.10;1.00
290;DHT22;13193;48.874;9.086;2022-12-07T03:43:53;4.00;1.00
290;DHT22;13193;48.874;9.086;2022-12-07T03:46:31;4.00;1.00
290;DHT22;13193;48.874;9.086;2022-12-07T03:49:07;3.90;1.00
290;DHT22;13193;48.874;9.086;2022-12-07T03:54:32;3.90;1.00
290;DHT22;13193;48.874;9.086;2022-12-07T03:57:01;3.90;1.00
290;DHT22;13193;48.874;9.086;2022-12-07T03:59:28;4.00;1.00
290;DHT22;13193;48.874;9.086;2022-12-07T04:01:57;4.00;1.00
290;DHT22;13193;48.874;9.086;2022-12-07T04:04:24;4.00;1.00
290;DHT22;13193;48.874;9.086;2022-12-07T04:06:50;4.10;1.00
290;DHT22;13193;48.874;9.086;2022-12-07T04:09:16;4.10;1.00
290;DHT22;13193;48.874;9.086;2022-12-07T04:11:42;4.10;1.00
290;DHT22;13193;48.874;9.086;2022-12-07T04:14:08;4.10;1.00
290;DHT22;13193;48.874;9.086;2022-12-07T04:16:57;4.10;1.00
290;DHT22;13193;48.874;9.086;2022-12-07T04:19:25;4.10;1.00
290;DHT22;13193;48.874;9.086;2022-12-07T04:21:51;4.10;1.00
290;DHT22;13193;48.874;9.086;2022-12-07T04:24:17;4.10;1.00
290;DHT22;13193;48.874;9.086;2022-12-07T04:26:43;4.10;1.00
290;DHT22;13193;48.874;9.086;2022-12-07T04:29:10;4.10;1.00
290;DHT22;13193;48.874;9.086;2022-12-07T04:31:36;4.00;1.00
290;DHT22;13193;48.874;9.086;2022-12-07T04:34:02;4.00;1.00
290;DHT22;13193;48.874;9.086;2022-12-07T04:36:28;4.00;1.00
290;DHT22;13193;48.874;9.086;2022-12-07T04:38:54;3.90;1.00
290;DHT22;13193;48.874;9.086;2022-12-07T04:41:21;4.00;1.00
290;DHT22;13193;48.874;9.086;2022-12-07T04:43:55;4.00;1.00
290;DHT22;13193;48.874;9.086;2022-12-07T04:46:21;4.00;1.00
290;DHT22;13193;48.874;9.086;2022-12-07T04:48:47;4.10;1.00
290;DHT22;13193;48.874;9.086;2022-12-07T04:51:14;4.20;1.00
290;DHT22;13193;48.874;9.086;2022-12-07T04:53:40;4.30;1.00
290;DHT22;13193;48.874;9.086;2022-12-07T04:56:06;4.30;1.00
290;DHT22;13193;48.874;9.086;2022-12-07T04:58:32;4.30;1.00
290;DHT22;13193;48.874;9.086;2022-12-07T05:00:57;4.20;1.00
290;DHT22;13193;48.874;9.086;2022-12-07T05:03:23;4.30;1.00
290;DHT22;13193;48.874;9.086;2022-12-07T05:05:48;4.30;1.00
290;DHT22;13193;48.874;9.086;2022-12-07T05:08:14;4.10;1.00
290;DHT22;13193;48.874;9.086;2022-12-07T05:10:40;4.00;1.00
290;DHT22;13193;48.874;9.086;2022-12-07T05:13:05;3.90;1.00
290;DHT22;13193;48.874;9.086;2022-12-07T05:15:31;3.80;1.00
290;DHT22;13193;48.874;9.086;2022-12-07T05:17:56;3.70;1.00
290;DHT22;13193;48.874;9.086;2022-12-07T05:20:22;3.60;1.00
290;DHT22;13193;48.874;9.086;2022-12-07T05:22:47;3.60;1.00
290;DHT22;13193;48.874;9.086;2022-12-07T05:25:13;3.50;1.00
290;DHT22;13193;48.874;9.086;2022-12-07T05:27:39;3.40;1.00
290;DHT22;13193;48.874;9.086;2022-12-07T05:30:05;3.40;1.00
290;DHT22;13193;48.874;9.086;2022-12-07T05:32:31;3.30;1.00
290;DHT22;13193;48.874;9.086;2022-12-07T05:34:56;3.30;1.00
290;DHT22;13193;48.874;9.086;2022-12-07T05:37:22;3.30;1.00
290;DHT22;13193;48.874;9.086;2022-12-07T05:39:48;3.20;1.00
290;DHT22;13193;48.874;9.086;2022-12-07T05:42:13;3.20;1.00
290;DHT22;13193;48.874;9.086;2022-12-07T05:44:46;3.20;1.00
290;DHT22;13193;48.874;9.086;2022-12-07T05:47:13;3.20;1.00
290;DHT22;13193;48.874;9.086;2022-12-07T05:49:39;3.30;1.00
290;DHT22;13193;48.874;9.086;2022-12-07T05:52:05;3.40;1.00
290;DHT22;13193;48.874;9.086;2022-12-07T05:54:31;3.40;1.00
290;DHT22;13193;48.874;9.086;2022-12-07T05:56:57;3.40;1.00
290;DHT22;13193;48.874;9.086;2022-12-07T05:59:23;3.40;1.00
290;DHT22;13193;48.874;9.086;2022-12-07T06:02:00;3.50;1.00
290;DHT22;13193;48.874;9.086;2022-12-07T06:04:29;3.60;1.00
290;DHT22;13193;48.874;9.086;2022-12-07T06:06:55;3.60;1.00
290;DHT22;13193;48.874;9.086;2022-12-07T06:09:22;3.60;1.00
290;DHT22;13193;48.874;9.086;2022-12-07T06:11:48;3.70;1.00
290;DHT22;13193;48.874;9.086;2022-12-07T06:14:32;3.70;1.00
290;DHT22;13193;48.874;9.086;2022-12-07T06:16:59;3.70;1.00
290;DHT22;13193;48.874;9.086;2022-12-07T06:19:24;3.70;1.00
290;DHT22;13193;48.874;9.086;2022-12-07T06:21:50;3.80;1.00
290;DHT22;13193;48.874;9.086;2022-12-07T06:24:17;3.80;1.00
290;DHT22;13193;48.874;9.086;2022-12-07T06:26:43;3.80;1.00
290;DHT22;13193;48.874;9.086;2022-12-07T06:29:09;3.80;1.00
290;DHT22;13193;48.874;9.086;2022-12-07T06:31:35;3.70;1.00
290;DHT22;13193;48.874;9.086;2022-12-07T06:34:04;3.70;1.00
290;DHT22;13193;48.874;9.086;2022-12-07T06:36:30;3.70;1.00
290;DHT22;13193;48.874;9.086;2022-12-07T06:38:56;3.70;1.00
290;DHT22;13193;48.874;9.086;2022-12-07T06:41:23;3.80;1.00
290;DHT22;13193;48.874;9.086;2022-12-07T06:43:49;3.80;1.00
290;DHT22;13193;48.874;9.086;2022-12-07T06:46:15;3.70;1.00
290;DHT22;13193;48.874;9.086;2022-12-07T06:48:41;3.80;1.00
290;DHT22;13193;48.874;9.086;2022-12-07T06:51:07;3.70;1.00
290;DHT22;13193;48.874;9.086;2022-12-07T06:53:33;3.80;1.00
290;DHT22;13193;48.874;9.086;2022-12-07T06:55:58;3.80;1.00
290;DHT22;13193;48.874;9.086;2022-12-07T06:58:24;3.70;1.00
290;DHT22;13193;48.874;9.086;2022-12-07T07:00:50;3.80;1.00
290;DHT22;13193;48.874;9.086;2022-12-07T07:03:16;3.90;1.00
290;DHT22;13193;48.874;9.086;2022-12-07T07:05:42;3.90;1.00
290;DHT22;13193;48.874;9.086;2022-12-07T07:08:08;3.90;1.00
290;DHT22;13193;48.874;9.086;2022-12-07T07:10:34;3.90;1.00
290;DHT22;13193;48.874;9.086;2022-12-07T07:12:59;3.90;1.00
290;DHT22;13193;48.874;9.086;2022-12-07T07:15:25;4.00;1.00
290;DHT22;13193;48.874;9.086;2022-12-07T07:17:50;4.00;1.00
290;DHT22;13193;48.874;9.086;2022-12-07T07:20:16;4.00;1.00
290;DHT22;13193;48.874;9.086;2022-12-07T07:22:42;4.10;1.00
290;DHT22;13193;48.874;9.086;2022-12-07T07:25:07;4.10;1.00
290;DHT22;13193;48.874;9.086;2022-12-07T07:27:33;4.10;1.00
290;DHT22;13193;48.874;9.086;2022-12-07T07:29:59;4.20;1.00
290;DHT22;13193;48.874;9.086;2022-12-07T07:32:24;4.30;1.00
290;DHT22;13193;48.874;9.086;2022-12-07T07:34:50;4.30;1.00
290;DHT22;13193;48.874;9.086;2022-12-07T07:37:15;4.30;1.00
290;DHT22;13193;48.874;9.086;2022-12-07T07:39:41;4.40;1.00
290;DHT22;13193;48.874;9.086;2022-12-07T07:42:07;4.50;1.00
290;DHT22;13193;48.874;9.086;2022-12-07T07:44:36;4.50;1.00
290;DHT22;13193;48.874;9.086;2022-12-07T07:47:02;4.60;1.00
290;DHT22;13193;48.874;9.086;2022-12-07T07:49:28;4.70;1.00
290;DHT22;13193;48.874;9.086;2022-12-07T07:51:53;4.70;1.00
290;DHT22;13193;48.874;9.086;2022-12-07T07:54:19;4.70;1.00
290;DHT22;13193;48.874;9.086;2022-12-07T07:56:44;4.80;1.00
290;DHT22;13193;48.874;9.086;2022-12-07T07:59:10;4.70;1.00
290;DHT22;13193;48.874;9.086;2022-12-07T08:01:38;4.80;1.00
290;DHT22;13193;48.874;9.086;2022-12-07T08:04:04;4.80;1.00
290;DHT22;13193;48.874;9.086;2022-12-07T08:06:29;4.80;1.00
290;DHT22;13193;48.874;9.086;2022-12-07T08:08:55;4.90;1.00
290;DHT22;13193;48.874;9.086;2022-12-07T08:11:23;5.00;1.00
290;DHT22;13193;48.874;9.086;2022-12-07T08:13:48;5.00;1.00
290;DHT22;13193;48.874;9.086;2022-12-07T08:16:14;5.00;1.00
290;DHT22;13193;48.874;9.086;2022-12-07T08:18:41;5.10;1.00
290;DHT22;13193;48.874;9.086;2022-12-07T08:21:11;5.20;1.00
290;DHT22;13193;48.874;9.086;2022-12-07T08:23:37;5.20;1.00
290;DHT22;13193;48.874;9.086;2022-12-07T08:26:04;5.20;1.00
290;DHT22;13193;48.874;9.086;2022-12-07T08:28:30;5.30;1.00
290;DHT22;13193;48.874;9.086;2022-12-07T08:31:04;5.40;1.00
290;DHT22;13193;48.874;9.086;2022-12-07T08:33:30;5.60;1.00
290;DHT22;13193;48.874;9.086;2022-12-07T08:36:01;5.60;1.00
290;DHT22;13193;48.874;9.086;2022-12-07T08:38:27;5.70;1.00
290;DHT22;13193;48.874;9.086;2022-12-07T08:40:57;5.90;1.00
290;DHT22;13193;48.874;9.086;2022-12-07T08:43:23;5.90;1.00
290;DHT22;13193;48.874;9.086;2022-12-07T08:46:01;6.10;1.00
290;DHT22;13193;48.874;9.086;2022-12-07T08:48:28;6.10;1.00
290;DHT22;13193;48.874;9.086;2022-12-07T08:50:53;6.30;1.00
290;DHT22;13193;48.874;9.086;2022-12-07T08:53:20;6.40;1.00
290;DHT22;13193;48.874;9.086;2022-12-07T08:55:46;6.50;1.00
290;DHT22;13193;48.874;9.086;2022-12-07T08:58:13;6.60;1.00
290;DHT22;13193;48.874;9.086;2022-12-07T09:00:39;6.70;1.00
290;DHT22;13193;48.874;9.086;2022-12-07T09:03:04;6.70;1.00
290;DHT22;13193;48.874;9.086;2022-12-07T09:05:30;6.90;1.00
290;DHT22;13193;48.874;9.086;2022-12-07T09:08:00;6.90;1.00
290;DHT22;13193;48.874;9.086;2022-12-07T09:10:27;7.00;1.00
290;DHT22;13193;48.874;9.086;2022-12-07T09:12:53;7.10;1.00
290;DHT22;13193;48.874;9.086;2022-12-07T09:15:19;7.20;1.00
290;DHT22;13193;48.874;9.086;2022-12-07T09:17:44;7.30;1.00
290;DHT22;13193;48.874;9.086;2022-12-07T09:20:10;7.30;1.00
290;DHT22;13193;48.874;9.086;2022-12-07T09:22:36;7.40;1.00
290;DHT22;13193;48.874;9.086;2022-12-07T09:25:03;7.50;1.00
290;DHT22;13193;48.874;9.086;2022-12-07T09:27:29;7.60;1.00
290;DHT22;13193;48.874;9.086;2022-12-07T09:29:55;7.60;1.00
290;DHT22;13193;48.874;9.086;2022-12-07T09:32:21;7.70;1.00
290;DHT22;13193;48.874;9.086;2022-12-07T09:34:47;7.80;1.00
290;DHT22;13193;48.874;9.086;2022-12-07T09:37:12;7.80;1.00
290;DHT22;13193;48.874;9.086;2022-12-07T09:39:39;7.80;1.00
290;DHT22;13193;48.874;9.086;2022-12-07T09:42:05;7.90;1.00
290;DHT22;13193;48.874;9.086;2022-12-07T09:44:33;8.00;1.00
290;DHT22;13193;48.874;9.086;2022-12-07T09:46:59;8.10;1.00
290;DHT22;13193;48.874;9.086;2022-12-07T09:49:28;8.20;1.00
290;DHT22;13193;48.874;9.086;2022-12-07T09:52:03;8.20;1.00
290;DHT22;13193;48.874;9.086;2022-12-07T09:54:43;8.20;1.00
290;DHT22;13193;48.874;9.086;2022-12-07T09:57:11;8.20;1.00
290;DHT22;13193;48.874;9.086;2022-12-07T10:00:03;8.10;1.00
290;DHT22;13193;48.874;9.086;2022-12-07T10:02:39;7.90;1.00
290;DHT22;13193;48.874;9.086;2022-12-07T10:05:12;7.80;1.00
290;DHT22;13193;48.874;9.086;2022-12-07T10:07:39;7.70;1.00
290;DHT22;13193;48.874;9.086;2022-12-07T10:10:13;7.60;1.00
290;DHT22;13193;48.874;9.086;2022-12-07T10:12:59;7.60;1.00
290;DHT22;13193;48.874;9.086;2022-12-07T10:18:28;7.60;1.00
290;DHT22;13193;48.874;9.086;2022-12-07T10:23:33;7.60;1.00
290;DHT22;13193;48.874;9.086;2022-12-07T10:25:59;7.50;1.00
290;DHT22;13193;48.874;9.086;2022-12-07T10:28:34;7.30;1.00
290;DHT22;13193;48.874;9.086;2022-12-07T10:31:15;7.20;1.00
290;DHT22;13193;48.874;9.086;2022-12-07T10:33:59;7.10;1.00
290;DHT22;13193;48.874;9.086;2022-12-07T10:39:15;6.90;1.00
290;DHT22;13193;48.874;9.086;2022-12-07T10:42:02;6.90;1.00
290;DHT22;13193;48.874;9.086;2022-12-07T10:44:33;6.90;1.00
290;DHT22;13193;48.874;9.086;2022-12-07T10:47:20;6.90;1.00
290;DHT22;13193;48.874;9.086;2022-12-07T10:55:35;7.10;1.00
290;DHT22;13193;48.874;9.086;2022-12-07T10:57:56;7.20;1.00
290;DHT22;13193;48.874;9.086;2022-12-07T11:00:37;7.20;1.00
290;DHT22;13193;48.874;9.086;2022-12-07T11:08:43;6.90;1.00
290;DHT22;13193;48.874;9.086;2022-12-07T11:11:40;6.90;1.00
290;DHT22;13193;48.874;9.086;2022-12-07T11:17:30;7.10;1.00
290;DHT22;13193;48.874;9.086;2022-12-07T11:22:58;7.20;1.00
290;DHT22;13193;48.874;9.086;2022-12-07T11:36:44;7.40;1.00
290;DHT22;13193;48.874;9.086;2022-12-07T11:41:42;7.20;1.00
290;DHT22;13193;48.874;9.086;2022-12-07T11:46:48;7.20;1.00
290;DHT22;13193;48.874;9.086;2022-12-07T11:49:54;7.20;1.00
290;DHT22;13193;48.874;9.086;2022-12-07T11:52:45;7.20;1.00
290;DHT22;13193;48.874;9.086;2022-12-07T11:55:32;7.20;1.00
290;DHT22;13193;48.874;9.086;2022-12-07T12:03:34;7.30;1.00
290;DHT22;13193;48.874;9.086;2022-12-07T12:06:01;7.30;1.00
290;DHT22;13193;48.874;9.086;2022-12-07T12:08:30;7.40;1.00
290;DHT22;13193;48.874;9.086;2022-12-07T12:11:02;7.60;1.00
290;DHT22;13193;48.874;9.086;2022-12-07T12:13:49;7.60;1.00
290;DHT22;13193;48.874;9.086;2022-12-07T12:16:43;7.60;1.00
290;DHT22;13193;48.874;9.086;2022-12-07T12:19:22;7.60;1.00
290;DHT22;13193;48.874;9.086;2022-12-07T12:21:49;7.60;1.00
290;DHT22;13193;48.874;9.086;2022-12-07T12:24:22;7.60;1.00
290;DHT22;13193;48.874;9.086;2022-12-07T12:26:51;7.70;1.00
290;DHT22;13193;48.874;9.086;2022-12-07T12:29:33;7.70;1.00
290;DHT22;13193;48.874;9.086;2022-12-07T12:32:17;7.90;1.00
290;DHT22;13193;48.874;9.086;2022-12-07T12:40:38;8.10;1.00
290;DHT22;13193;48.874;9.086;2022-12-07T12:51:55;7.90;1.00
290;DHT22;13193;48.874;9.086;2022-12-07T12:59:33;7.80;1.00
290;DHT22;13193;48.874;9.086;2022-12-07T13:15:40;7.50;1.00
290;DHT22;13193;48.874;9.086;2022-12-07T13:29:16;7.10;1.00
290;DHT22;13193;48.874;9.086;2022-12-07T13:32:01;7.10;1.00
290;DHT22;13193;48.874;9.086;2022-12-07T13:34:37;7.10;1.00
290;DHT22;13193;48.874;9.086;2022-12-07T13:37:14;7.20;1.00
290;DHT22;13193;48.874;9.086;2022-12-07T13:40:01;7.30;1.00
290;DHT22;13193;48.874;9.086;2022-12-07T13:42:41;7.40;1.00
290;DHT22;13193;48.874;9.086;2022-12-07T13:45:24;7.50;1.00
290;DHT22;13193;48.874;9.086;2022-12-07T13:48:34;7.60;1.00
290;DHT22;13193;48.874;9.086;2022-12-07T13:51:03;7.60;1.00
290;DHT22;13193;48.874;9.086;2022-12-07T13:53:29;7.60;1.00
290;DHT22;13193;48.874;9.086;2022-12-07T13:55:59;7.70;1.00
290;DHT22;13193;48.874;9.086;2022-12-07T13:58:26;7.70;1.00
290;DHT22;13193;48.874;9.086;2022-12-07T14:00:52;7.70;1.00
290;DHT22;13193;48.874;9.086;2022-12-07T14:03:32;7.60;1.00
290;DHT22;13193;48.874;9.086;2022-12-07T14:06:15;7.50;1.00
290;DHT22;13193;48.874;9.086;2022-12-07T14:08:42;7.40;1.00
290;DHT22;13193;48.874;9.086;2022-12-07T14:11:14;7.40;1.00
290;DHT22;13193;48.874;9.086;2022-12-07T14:13:59;7.40;1.00
290;DHT22;13193;48.874;9.086;2022-12-07T14:16:34;7.30;1.00
290;DHT22;13193;48.874;9.086;2022-12-07T14:19:03;7.30;1.00
290;DHT22;13193;48.874;9.086;2022-12-07T14:21:31;7.30;1.00
290;DHT22;13193;48.874;9.086;2022-12-07T14:24:11;7.20;1.00
290;DHT22;13193;48.874;9.086;2022-12-07T14:26:38;7.20;1.00
290;DHT22;13193;48.874;9.086;2022-12-07T14:31:53;7.10;1.00
290;DHT22;13193;48.874;9.086;2022-12-07T14:34:21;7.00;1.00
290;DHT22;13193;48.874;9.086;2022-12-07T14:36:47;7.00;1.00
290;DHT22;13193;48.874;9.086;2022-12-07T14:39:12;6.90;1.00
290;DHT22;13193;48.874;9.086;2022-12-07T14:41:38;6.80;1.00
290;DHT22;13193;48.874;9.086;2022-12-07T14:44:16;6.60;1.00
290;DHT22;13193;48.874;9.086;2022-12-07T14:46:42;6.60;1.00
290;DHT22;13193;48.874;9.086;2022-12-07T14:49:07;6.50;1.00
290;DHT22;13193;48.874;9.086;2022-12-07T14:51:36;6.50;1.00
290;DHT22;13193;48.874;9.086;2022-12-07T14:54:05;6.40;1.00
290;DHT22;13193;48.874;9.086;2022-12-07T14:56:32;6.30;1.00
290;DHT22;13193;48.874;9.086;2022-12-07T14:58:58;6.20;1.00
290;DHT22;13193;48.874;9.086;2022-12-07T15:01:23;6.20;1.00
290;DHT22;13193;48.874;9.086;2022-12-07T15:03:49;6.10;1.00
290;DHT22;13193;48.874;9.086;2022-12-07T15:06:17;6.00;1.00
290;DHT22;13193;48.874;9.086;2022-12-07T15:08:45;6.00;1.00
290;DHT22;13193;48.874;9.086;2022-12-07T15:11:16;6.00;1.00
290;DHT22;13193;48.874;9.086;2022-12-07T15:13:43;5.90;1.00
290;DHT22;13193;48.874;9.086;2022-12-07T15:16:27;5.90;1.00
290;DHT22;13193;48.874;9.086;2022-12-07T15:18:52;5.80;1.00
290;DHT22;13193;48.874;9.086;2022-12-07T15:21:18;5.80;1.00
290;DHT22;13193;48.874;9.086;2022-12-07T15:23:46;5.80;1.00
290;DHT22;13193;48.874;9.086;2022-12-07T15:26:12;5.70;1.00
290;DHT22;13193;48.874;9.086;2022-12-07T15:28:39;6.00;1.00
290;DHT22;13193;48.874;9.086;2022-12-07T15:31:11;5.60;1.00
290;DHT22;13193;48.874;9.086;2022-12-07T15:33:37;5.50;1.00
290;DHT22;13193;48.874;9.086;2022-12-07T15:36:05;5.50;1.00
290;DHT22;13193;48.874;9.086;2022-12-07T15:38:31;5.40;1.00
290;DHT22;13193;48.874;9.086;2022-12-07T15:40:57;5.40;1.00
290;DHT22;13193;48.874;9.086;2022-12-07T15:43:22;5.30;1.00
290;DHT22;13193;48.874;9.086;2022-12-07T15:46:07;5.30;1.00
290;DHT22;13193;48.874;9.086;2022-12-07T15:48:37;5.70;1.00
290;DHT22;13193;48.874;9.086;2022-12-07T15:51:08;5.20;1.00
290;DHT22;13193;48.874;9.086;2022-12-07T15:53:34;5.20;1.00
290;DHT22;13193;48.874;9.086;2022-12-07T15:56:00;5.20;1.00
290;DHT22;13193;48.874;9.086;2022-12-07T15:58:26;5.10;1.00
290;DHT22;13193;48.874;9.086;2022-12-07T16:00:53;5.20;1.00
290;DHT22;13193;48.874;9.086;2022-12-07T16:03:18;5.10;1.00
290;DHT22;13193;48.874;9.086;2022-12-07T16:05:54;5.00;1.00
290;DHT22;13193;48.874;9.086;2022-12-07T16:08:19;5.10;1.00
290;DHT22;13193;48.874;9.086;2022-12-07T16:10:46;5.10;1.00
290;DHT22;13193;48.874;9.086;2022-12-07T16:13:12;5.10;1.00
290;DHT22;13193;48.874;9.086;2022-12-07T16:15:40;5.10;1.00
290;DHT22;13193;48.874;9.086;2022-12-07T16:18:06;5.10;1.00
290;DHT22;13193;48.874;9.086;2022-12-07T16:20:31;5.00;1.00
290;DHT22;13193;48.874;9.086;2022-12-07T16:22:57;5.50;1.00
290;DHT22;13193;48.874;9.086;2022-12-07T16:25:23;4.90;1.00
290;DHT22;13193;48.874;9.086;2022-12-07T16:27:50;4.90;1.00
290;DHT22;13193;48.874;9.086;2022-12-07T16:30:16;4.70;1.00
290;DHT22;13193;48.874;9.086;2022-12-07T16:32:43;4.70;1.00
290;DHT22;13193;48.874;9.086;2022-12-07T16:35:09;4.50;1.00
290;DHT22;13193;48.874;9.086;2022-12-07T16:37:35;4.60;1.00
290;DHT22;13193;48.874;9.086;2022-12-07T16:40:03;4.50;1.00
290;DHT22;13193;48.874;9.086;2022-12-07T16:42:33;4.50;1.00
290;DHT22;13193;48.874;9.086;2022-12-07T16:45:00;4.50;1.00
290;DHT22;13193;48.874;9.086;2022-12-07T16:47:26;4.60;1.00
290;DHT22;13193;48.874;9.086;2022-12-07T16:49:52;5.00;1.00
290;DHT22;13193;48.874;9.086;2022-12-07T16:52:21;4.60;1.00
290;DHT22;13193;48.874;9.086;2022-12-07T16:54:48;4.50;1.00
290;DHT22;13193;48.874;9.086;2022-12-07T16:57:15;4.40;1.00
290;DHT22;13193;48.874;9.086;2022-12-07T16:59:41;4.40;1.00
290;DHT22;13193;48.874;9.086;2022-12-07T17:02:10;4.90;1.00
290;DHT22;13193;48.874;9.086;2022-12-07T17:04:36;4.50;1.00
290;DHT22;13193;48.874;9.086;2022-12-07T17:07:06;4.70;1.00
290;DHT22;13193;48.874;9.086;2022-12-07T17:09:32;4.40;1.00
290;DHT22;13193;48.874;9.086;2022-12-07T17:11:57;4.40;1.00
290;DHT22;13193;48.874;9.086;2022-12-07T17:14:23;4.60;1.00
290;DHT22;13193;48.874;9.086;2022-12-07T17:17:07;4.30;1.00
290;DHT22;13193;48.874;9.086;2022-12-07T17:19:33;4.60;1.00
290;DHT22;13193;48.874;9.086;2022-12-07T17:21:59;4.50;1.00
290;DHT22;13193;48.874;9.086;2022-12-07T17:24:24;4.60;1.00
290;DHT22;13193;48.874;9.086;2022-12-07T17:26:50;5.10;1.00
290;DHT22;13193;48.874;9.086;2022-12-07T17:29:17;4.70;1.00
290;DHT22;13193;48.874;9.086;2022-12-07T17:31:45;4.70;1.00
290;DHT22;13193;48.874;9.086;2022-12-07T17:34:12;4.70;1.00
290;DHT22;13193;48.874;9.086;2022-12-07T17:36:42;4.70;1.00
290;DHT22;13193;48.874;9.086;2022-12-07T17:39:13;4.70;1.00
290;DHT22;13193;48.874;9.086;2022-12-07T17:41:43;5.00;1.00
290;DHT22;13193;48.874;9.086;2022-12-07T17:44:29;4.80;1.00
290;DHT22;13193;48.874;9.086;2022-12-07T17:46:58;4.80;1.00
290;DHT22;13193;48.874;9.086;2022-12-07T17:49:28;4.80;1.00
290;DHT22;13193;48.874;9.086;2022-12-07T17:51:54;4.80;1.00
290;DHT22;13193;48.874;9.086;2022-12-07T17:54:39;4.80;1.00
290;DHT22;13193;48.874;9.086;2022-12-07T17:57:04;4.70;1.00
290;DHT22;13193;48.874;9.086;2022-12-07T17:59:31;4.80;1.00
290;DHT22;13193;48.874;9.086;2022-12-07T18:01:56;4.80;1.00
290;DHT22;13193;48.874;9.086;2022-12-07T18:04:22;4.80;1.00
290;DHT22;13193;48.874;9.086;2022-12-07T18:06:48;4.70;1.00
290;DHT22;13193;48.874;9.086;2022-12-07T18:09:13;5.00;1.00
290;DHT22;13193;48.874;9.086;2022-12-07T18:11:39;4.70;1.00
290;DHT22;13193;48.874;9.086;2022-12-07T18:14:06;4.70;1.00
290;DHT22;13193;48.874;9.086;2022-12-07T18:16:32;4.80;1.00
290;DHT22;13193;48.874;9.086;2022-12-07T18:19:01;5.00;1.00
290;DHT22;13193;48.874;9.086;2022-12-07T18:21:28;4.90;1.00
290;DHT22;13193;48.874;9.086;2022-12-07T18:23:55;4.80;1.00
290;DHT22;13193;48.874;9.086;2022-12-07T18:26:24;4.90;1.00
290;DHT22;13193;48.874;9.086;2022-12-07T18:28:50;4.50;1.00
290;DHT22;13193;48.874;9.086;2022-12-07T18:31:18;5.20;1.00
290;DHT22;13193;48.874;9.086;2022-12-07T18:33:47;4.80;1.00
290;DHT22;13193;48.874;9.086;2022-12-07T18:36:14;4.80;1.00
290;DHT22;13193;48.874;9.086;2022-12-07T18:38:40;5.00;1.00
290;DHT22;13193;48.874;9.086;2022-12-07T18:41:07;4.80;1.00
290;DHT22;13193;48.874;9.086;2022-12-07T18:43:33;4.80;1.00
290;DHT22;13193;48.874;9.086;2022-12-07T18:45:59;4.90;1.00